createdAt,value
2023-02-06T00:20:01.647Z,26.39
2023-02-06T00:21:01.706Z,26.38
2023-02-06T00:22:01.753Z,26.39
2023-02-06T00:23:01.808Z,26.41
2023-02-06T00:24:01.832Z,26.41
2023-02-06T00:25:01.901Z,26.42
2023-02-06T00:26:01.931Z,26.42
2023-02-06T00:27:01.959Z,26.46
2023-02-06T00:28:02.104Z,26.45
2023-02-06T00:29:02.033Z,26.48
2023-02-06T00:30:02.060Z,26.49
2023-02-06T00:31:02.190Z,26.52
2023-02-06T00:32:02.144Z,26.52
2023-02-06T00:33:02.195Z,26.54
2023-02-06T00:34:02.203Z,26.55
2023-02-06T00:35:02.225Z,26.55
2023-02-06T00:36:02.287Z,26.56
2023-02-06T00:37:02.348Z,26.58
2023-02-06T00:38:02.352Z,26.58
2023-02-06T00:39:02.383Z,26.59
2023-02-06T00:40:02.402Z,26.62
2023-02-06T00:41:02.403Z,26.63
2023-02-06T00:42:02.427Z,26.63
2023-02-06T00:43:02.484Z,26.63
2023-02-06T00:44:02.508Z,26.63
2023-02-06T00:45:02.531Z,26.65
2023-02-06T00:46:02.592Z,26.69
2023-02-06T00:47:02.603Z,26.66
2023-02-06T00:48:02.640Z,26.68
2023-02-06T00:49:02.640Z,26.71
2023-02-06T00:50:02.662Z,26.69
2023-02-06T00:51:02.661Z,26.71
2023-02-06T00:52:02.704Z,26.71
2023-02-06T00:53:03.425Z,26.69
2023-02-06T00:54:02.741Z,26.71
2023-02-06T00:55:02.718Z,26.69
2023-02-06T00:56:02.743Z,26.69
2023-02-06T00:57:02.777Z,26.71
2023-02-06T00:58:02.824Z,26.68
2023-02-06T00:59:02.903Z,26.69
2023-02-06T01:00:02.933Z,26.71
2023-02-06T01:01:03.013Z,26.72
2023-02-06T01:02:03.122Z,26.72
2023-02-06T01:03:03.152Z,26.71
2023-02-06T01:04:03.193Z,26.71
2023-02-06T01:05:03.234Z,26.72
2023-02-06T01:06:03.272Z,26.72
2023-02-06T01:07:03.354Z,26.74
2023-02-06T01:08:04.525Z,26.76
2023-02-06T01:09:03.455Z,26.75
2023-02-06T01:10:03.552Z,26.76
2023-02-06T01:11:03.551Z,26.76
2023-02-06T01:12:03.606Z,26.78
2023-02-06T01:13:03.661Z,26.76
2023-02-06T01:14:03.711Z,26.74
2023-02-06T01:15:03.785Z,26.78
2023-02-06T01:16:03.856Z,26.78
2023-02-06T01:17:03.852Z,26.76
2023-02-06T01:18:03.923Z,26.78
2023-02-06T01:19:03.962Z,26.76
2023-02-06T01:20:04.011Z,26.81
2023-02-06T01:21:04.053Z,26.79
2023-02-06T01:22:04.081Z,26.81
2023-02-06T01:23:04.068Z,26.83
2023-02-06T01:24:04.084Z,26.82
2023-02-06T01:25:04.076Z,26.81
2023-02-06T01:26:04.059Z,26.81
2023-02-06T01:27:04.071Z,26.79
2023-02-06T01:28:04.119Z,26.83
2023-02-06T01:29:04.049Z,26.81
2023-02-06T01:30:04.049Z,26.82
2023-02-06T01:31:04.129Z,26.86
2023-02-06T01:32:04.040Z,26.83
2023-02-06T01:33:04.023Z,26.81
2023-02-06T01:34:04.038Z,26.81
2023-02-06T01:35:04.044Z,26.86
2023-02-06T01:36:04.052Z,26.83
2023-02-06T01:37:04.016Z,26.83
2023-02-06T01:38:04.036Z,26.87
2023-02-06T01:39:04.036Z,26.87
2023-02-06T01:40:04.037Z,26.86
2023-02-06T01:41:03.995Z,26.87
2023-02-06T01:42:04.032Z,26.86
2023-02-06T01:43:04.009Z,26.87
2023-02-06T01:44:03.994Z,26.86
2023-02-06T01:45:04.005Z,26.86
2023-02-06T01:46:04.029Z,26.86
2023-02-06T01:47:04.000Z,26.86
2023-02-06T01:48:04.021Z,26.86
2023-02-06T01:49:06.681Z,26.87
2023-02-06T01:50:03.967Z,26.90
2023-02-06T01:51:03.973Z,26.90
2023-02-06T01:52:03.997Z,26.87
2023-02-06T01:53:03.954Z,26.86
2023-02-06T01:54:03.964Z,26.89
2023-02-06T01:55:03.964Z,26.89
2023-02-06T01:56:03.944Z,26.89
2023-02-06T01:57:03.908Z,26.89
2023-02-06T01:58:03.948Z,26.89
2023-02-06T01:59:03.940Z,26.90
2023-02-06T02:00:03.925Z,26.87
2023-02-06T02:01:03.984Z,26.93
2023-02-06T02:02:03.971Z,26.93
2023-02-06T02:03:03.930Z,26.92
2023-02-06T02:04:03.890Z,26.93
2023-02-06T02:05:03.900Z,26.93
2023-02-06T02:06:03.878Z,26.90
2023-02-06T02:07:03.875Z,26.95
2023-02-06T02:08:03.876Z,26.93
2023-02-06T02:09:03.862Z,26.93
2023-02-06T02:10:03.836Z,26.92
2023-02-06T02:11:03.856Z,26.92
2023-02-06T02:12:03.840Z,26.95
2023-02-06T02:13:03.833Z,26.93
2023-02-06T02:14:03.822Z,26.93
2023-02-06T02:15:03.813Z,26.96
2023-02-06T02:16:03.870Z,26.95
2023-02-06T02:17:03.810Z,26.95
2023-02-06T02:18:03.824Z,26.95
2023-02-06T02:19:03.791Z,26.93
2023-02-06T02:20:03.813Z,26.93
2023-02-06T02:21:03.774Z,26.96
2023-02-06T02:22:03.785Z,26.95
2023-02-06T02:23:03.799Z,26.93
2023-02-06T02:24:03.769Z,26.95
2023-02-06T02:25:03.769Z,26.96
2023-02-06T02:26:03.731Z,26.97
2023-02-06T02:27:03.749Z,26.96
2023-02-06T02:28:03.787Z,26.96
2023-02-06T02:29:03.729Z,26.97
2023-02-06T02:30:03.781Z,26.97
2023-02-06T02:31:03.723Z,27.00
2023-02-06T02:32:03.720Z,27.02
2023-02-06T02:33:03.726Z,27.00
2023-02-06T02:34:03.684Z,27.00
2023-02-06T02:35:03.674Z,27.02
2023-02-06T02:36:03.716Z,26.99
2023-02-06T02:37:03.687Z,27.03
2023-02-06T02:38:03.691Z,27.02
2023-02-06T02:39:03.690Z,27.02
2023-02-06T02:40:03.699Z,27.00
2023-02-06T02:41:03.686Z,27.00
2023-02-06T02:42:03.640Z,27.02
2023-02-06T02:43:03.618Z,27.02
2023-02-06T02:44:03.636Z,27.00
2023-02-06T02:45:03.629Z,27.02
2023-02-06T02:46:03.636Z,27.03
2023-02-06T02:47:03.613Z,27.03
2023-02-06T02:48:03.585Z,27.02
2023-02-06T02:49:03.587Z,27.06
2023-02-06T02:50:03.640Z,27.05
2023-02-06T02:51:03.671Z,27.02
2023-02-06T02:52:03.757Z,27.02
2023-02-06T02:53:04.455Z,27.03
2023-02-06T02:54:03.854Z,27.06
2023-02-06T02:55:03.937Z,27.03
2023-02-06T02:56:03.990Z,27.05
2023-02-06T02:57:04.044Z,27.06
2023-02-06T02:58:04.460Z,27.06
2023-02-06T02:59:04.153Z,27.09
2023-02-06T03:00:04.268Z,27.05
2023-02-06T03:01:04.338Z,27.05
2023-02-06T03:02:04.488Z,27.06
2023-02-06T03:03:04.403Z,27.03
2023-02-06T03:04:04.470Z,27.06
2023-02-06T03:05:04.510Z,27.06
2023-02-06T03:06:04.581Z,27.06
2023-02-06T03:07:04.640Z,27.07
2023-02-06T03:08:04.677Z,27.06
2023-02-06T03:09:04.786Z,27.07
2023-02-06T03:10:04.839Z,27.07
2023-02-06T03:11:04.898Z,27.09
2023-02-06T03:12:04.964Z,27.05
2023-02-06T03:13:05.016Z,27.09
2023-02-06T03:14:05.083Z,27.07
2023-02-06T03:15:05.216Z,27.06
2023-02-06T03:16:05.271Z,27.05
2023-02-06T03:17:05.252Z,27.06
2023-02-06T03:18:05.338Z,27.05
2023-02-06T03:19:05.423Z,27.07
2023-02-06T03:20:05.476Z,27.05
2023-02-06T03:21:05.555Z,27.07
2023-02-06T03:22:05.606Z,27.06
2023-02-06T03:23:05.659Z,27.06
2023-02-06T03:24:05.703Z,27.07
2023-02-06T03:25:05.766Z,27.07
2023-02-06T03:26:05.843Z,27.06
2023-02-06T03:27:05.883Z,27.07
2023-02-06T03:28:05.981Z,27.09
2023-02-06T03:29:06.037Z,27.09
2023-02-06T03:30:06.077Z,27.11
2023-02-06T03:31:06.151Z,27.10
2023-02-06T03:32:06.221Z,27.09
2023-02-06T03:33:06.266Z,27.11
2023-02-06T03:34:06.346Z,27.10
2023-02-06T03:35:06.521Z,27.10
2023-02-06T03:36:06.475Z,27.13
2023-02-06T03:37:06.524Z,27.09
2023-02-06T03:38:06.579Z,27.10
2023-02-06T03:39:06.657Z,27.13
2023-02-06T03:40:06.732Z,27.10
2023-02-06T03:41:06.756Z,27.11
2023-02-06T03:42:06.793Z,27.13
2023-02-06T03:43:06.913Z,27.11
2023-02-06T03:44:06.944Z,27.14
2023-02-06T03:45:06.994Z,27.13
2023-02-06T03:46:07.058Z,27.13
2023-02-06T03:47:07.036Z,27.14
2023-02-06T03:48:07.059Z,27.16
2023-02-06T03:49:07.088Z,27.16
2023-02-06T03:50:07.100Z,27.14
2023-02-06T03:51:07.101Z,27.16
2023-02-06T03:52:07.104Z,27.14
2023-02-06T03:53:07.148Z,27.14
2023-02-06T03:54:07.143Z,27.14
2023-02-06T03:55:07.162Z,27.14
2023-02-06T03:56:07.155Z,27.14
2023-02-06T03:57:07.240Z,27.14
2023-02-06T03:58:07.325Z,27.13
2023-02-06T03:59:07.362Z,27.13
2023-02-06T04:00:07.414Z,27.19
2023-02-06T04:01:07.491Z,27.16
2023-02-06T04:02:07.554Z,27.17
2023-02-06T04:03:07.632Z,27.16
2023-02-06T04:04:07.630Z,27.16
2023-02-06T04:05:07.719Z,27.14
2023-02-06T04:06:07.766Z,27.16
2023-02-06T04:07:07.827Z,27.14
2023-02-06T04:08:07.888Z,27.19
2023-02-06T04:09:07.932Z,27.16
2023-02-06T04:10:08.038Z,27.17
2023-02-06T04:11:08.051Z,27.16
2023-02-06T04:12:08.095Z,27.17
2023-02-06T04:13:08.208Z,27.19
2023-02-06T04:14:08.252Z,27.17
2023-02-06T04:15:08.322Z,27.16
2023-02-06T04:16:08.370Z,27.16
2023-02-06T04:17:08.435Z,27.19
2023-02-06T04:18:08.498Z,27.19
2023-02-06T04:19:08.533Z,27.20
2023-02-06T04:20:08.596Z,27.19
2023-02-06T04:21:08.644Z,27.20
2023-02-06T04:22:08.705Z,27.19
2023-02-06T04:23:08.787Z,27.19
2023-02-06T04:24:08.770Z,27.22
2023-02-06T04:25:08.815Z,27.20
2023-02-06T04:26:08.845Z,27.19
2023-02-06T04:27:08.833Z,27.19
2023-02-06T04:28:08.918Z,27.17
2023-02-06T04:29:08.822Z,27.19
2023-02-06T04:30:08.897Z,27.19
2023-02-06T04:31:09.019Z,27.19
2023-02-06T04:32:08.883Z,27.17
2023-02-06T04:33:08.896Z,27.20
2023-02-06T04:36:08.904Z,27.17
2023-02-06T04:37:08.923Z,27.19
2023-02-06T04:38:08.935Z,27.23
2023-02-06T04:39:08.938Z,27.22
2023-02-06T04:40:08.974Z,27.25
2023-02-06T04:41:08.991Z,27.23
2023-02-06T04:42:08.971Z,27.23
2023-02-06T04:43:08.982Z,27.23
2023-02-06T04:44:08.997Z,27.25
2023-02-06T04:45:09.005Z,27.23
2023-02-06T04:46:09.052Z,27.25
2023-02-06T04:47:09.034Z,27.26
2023-02-06T04:48:09.061Z,27.27
2023-02-06T04:49:09.067Z,27.26
2023-02-06T04:50:09.086Z,27.27
2023-02-06T04:51:09.097Z,27.29
2023-02-06T04:52:09.136Z,27.27
2023-02-06T04:53:09.152Z,27.26
2023-02-06T04:54:09.163Z,27.26
2023-02-06T04:55:09.129Z,27.27
2023-02-06T04:56:09.186Z,27.32
2023-02-06T04:57:09.190Z,27.29
2023-02-06T04:58:09.202Z,27.27
2023-02-06T04:59:09.216Z,27.29
2023-02-06T05:00:09.370Z,27.32
2023-02-06T05:01:09.276Z,27.30
2023-02-06T05:02:09.254Z,27.32
2023-02-06T05:03:09.301Z,27.32
2023-02-06T05:04:09.247Z,27.34
2023-02-06T05:05:09.275Z,27.32
2023-02-06T05:06:09.284Z,27.32
2023-02-06T05:07:09.412Z,27.34
2023-02-06T05:08:09.318Z,27.27
2023-02-06T05:09:09.375Z,27.33
2023-02-06T05:10:09.394Z,27.33
2023-02-06T05:11:09.362Z,27.33
2023-02-06T05:12:09.429Z,27.32
2023-02-06T05:13:09.439Z,27.34
2023-02-06T05:14:09.449Z,27.34
2023-02-06T05:15:09.486Z,27.34
2023-02-06T05:16:09.488Z,27.34
2023-02-06T05:17:09.501Z,27.33
2023-02-06T05:18:09.550Z,27.34
2023-02-06T05:19:09.804Z,27.36
2023-02-06T05:20:09.650Z,27.37
2023-02-06T05:21:09.654Z,27.37
2023-02-06T05:22:09.822Z,27.33
2023-02-06T05:23:09.715Z,27.36
2023-02-06T05:24:09.750Z,27.36
2023-02-06T05:25:09.773Z,27.36
2023-02-06T05:26:09.808Z,27.37
2023-02-06T05:27:09.843Z,27.37
2023-02-06T05:28:09.902Z,27.36
2023-02-06T05:29:09.860Z,27.36
2023-02-06T05:30:09.866Z,27.36
2023-02-06T05:31:09.955Z,27.34
2023-02-06T05:32:09.940Z,27.33
2023-02-06T05:33:09.959Z,27.36
2023-02-06T05:34:09.989Z,27.33
2023-02-06T05:35:10.004Z,27.36
2023-02-06T05:36:10.027Z,27.34
2023-02-06T05:37:10.084Z,27.34
2023-02-06T05:38:10.103Z,27.33
2023-02-06T05:39:10.118Z,27.34
2023-02-06T05:40:10.175Z,27.34
2023-02-06T05:41:10.214Z,27.33
2023-02-06T05:42:10.277Z,27.33
2023-02-06T05:43:10.298Z,27.33
2023-02-06T05:44:10.311Z,27.33
2023-02-06T05:45:10.345Z,27.33
2023-02-06T05:46:10.417Z,27.32
2023-02-06T05:47:10.409Z,27.32
2023-02-06T05:48:10.519Z,27.30
2023-02-06T05:49:10.518Z,27.30
2023-02-06T05:50:10.495Z,27.32
2023-02-06T05:51:10.535Z,27.32
2023-02-06T05:52:10.552Z,27.32
2023-02-06T05:53:10.569Z,27.33
2023-02-06T05:54:10.639Z,27.33
2023-02-06T05:55:10.643Z,27.33
2023-02-06T05:56:10.660Z,27.32
2023-02-06T05:57:10.691Z,27.33
2023-02-06T05:58:11.045Z,27.34
2023-02-06T05:59:10.785Z,27.33
2023-02-06T06:00:10.829Z,27.32
2023-02-06T06:01:17.881Z,27.32
2023-02-06T06:02:10.864Z,27.32
2023-02-06T06:03:11.075Z,27.33
2023-02-06T06:04:10.903Z,27.30
2023-02-06T06:05:10.858Z,27.32
2023-02-06T06:06:10.827Z,27.33
2023-02-06T06:07:10.810Z,27.33
2023-02-06T06:08:10.821Z,27.33
2023-02-06T06:09:10.800Z,27.30
2023-02-06T06:10:10.782Z,27.32
2023-02-06T06:11:10.804Z,27.29
2023-02-06T06:12:10.787Z,27.33
2023-02-06T06:13:10.799Z,27.30
2023-02-06T06:14:10.797Z,27.33
2023-02-06T06:15:10.803Z,27.30
2023-02-06T06:16:10.776Z,27.29
2023-02-06T06:17:10.771Z,27.32
2023-02-06T06:18:10.776Z,27.33
2023-02-06T06:19:10.752Z,27.30
2023-02-06T06:20:10.742Z,27.30
2023-02-06T06:21:10.727Z,27.30
2023-02-06T06:22:10.758Z,27.29
2023-02-06T06:23:10.712Z,27.29
2023-02-06T06:24:10.746Z,27.29
2023-02-06T06:25:10.712Z,27.30
2023-02-06T06:26:10.706Z,27.30
2023-02-06T06:27:10.753Z,27.27
2023-02-06T06:28:11.632Z,27.30
2023-02-06T06:29:10.673Z,27.32
2023-02-06T06:30:10.683Z,27.30
2023-02-06T06:31:10.753Z,27.30
2023-02-06T06:32:10.662Z,27.29
2023-02-06T06:33:10.731Z,27.30
2023-02-06T06:34:11.156Z,27.29
2023-02-06T06:35:10.645Z,27.30
2023-02-06T06:36:11.867Z,27.26
2023-02-06T06:37:10.690Z,27.25
2023-02-06T06:38:10.634Z,27.22
2023-02-06T06:39:11.095Z,27.20
2023-02-06T06:40:10.638Z,27.19
2023-02-06T06:41:10.577Z,27.14
2023-02-06T06:42:10.600Z,27.17
2023-02-06T06:43:10.556Z,27.17
2023-02-06T06:44:10.599Z,27.14
2023-02-06T06:45:10.587Z,27.11
2023-02-06T06:46:17.558Z,27.09
2023-02-06T06:47:10.544Z,27.11
2023-02-06T06:48:10.557Z,27.11
2023-02-06T06:49:10.636Z,27.11
2023-02-06T06:50:10.555Z,27.13
2023-02-06T06:51:10.582Z,27.14
2023-02-06T06:52:22.931Z,27.16
2023-02-06T06:53:11.515Z,27.14
2023-02-06T06:54:10.500Z,27.11
2023-02-06T06:55:10.493Z,27.14
2023-02-06T06:56:10.549Z,27.13
2023-02-06T06:57:10.485Z,27.11
2023-02-06T06:58:10.518Z,27.13
2023-02-06T06:59:10.623Z,27.13
2023-02-06T07:00:10.477Z,27.11
2023-02-06T07:01:10.450Z,27.14
2023-02-06T07:02:10.561Z,27.13
2023-02-06T07:03:10.508Z,27.14
2023-02-06T07:04:10.503Z,27.11
2023-02-06T07:05:10.507Z,27.13
2023-02-06T07:06:10.572Z,27.16
2023-02-06T07:07:10.661Z,27.11
2023-02-06T07:08:10.545Z,27.11
2023-02-06T07:09:10.618Z,27.10
2023-02-06T07:10:10.575Z,27.11
2023-02-06T07:11:10.596Z,27.11
2023-02-06T07:12:10.590Z,27.11
2023-02-06T07:13:10.624Z,27.10
2023-02-06T07:14:10.631Z,27.10
2023-02-06T07:15:10.617Z,27.13
2023-02-06T07:16:10.655Z,27.14
2023-02-06T07:17:10.624Z,27.13
2023-02-06T07:18:11.860Z,27.13
2023-02-06T07:19:10.603Z,27.14
2023-02-06T07:20:10.670Z,27.13
2023-02-06T07:21:10.610Z,27.16
2023-02-06T07:22:10.576Z,27.16
2023-02-06T07:23:10.614Z,27.20
2023-02-06T07:24:10.585Z,27.20
2023-02-06T07:25:10.578Z,27.20
2023-02-06T07:26:11.536Z,27.19
2023-02-06T07:27:10.558Z,27.23
2023-02-06T07:28:10.641Z,27.20
2023-02-06T07:30:10.684Z,27.26
2023-02-06T07:31:10.661Z,27.26
2023-02-06T07:32:10.705Z,27.27
2023-02-06T07:33:10.750Z,27.29
2023-02-06T07:34:10.942Z,27.30
2023-02-06T07:35:10.888Z,27.34
2023-02-06T07:36:10.937Z,27.34
2023-02-06T07:37:11.145Z,27.36
2023-02-06T07:38:10.984Z,27.40
2023-02-06T07:39:11.056Z,27.43
2023-02-06T07:42:11.178Z,27.46
2023-02-06T07:43:11.203Z,27.43
2023-02-06T07:44:11.672Z,27.33
2023-02-06T07:45:11.221Z,27.25
2023-02-06T07:46:11.293Z,27.16
2023-02-06T07:47:11.335Z,27.11
2023-02-06T07:48:11.262Z,27.07
2023-02-06T07:49:11.259Z,27.11
2023-02-06T07:50:11.303Z,27.10
2023-02-06T07:51:11.267Z,27.16
2023-02-06T07:52:11.285Z,27.20
2023-02-06T07:53:11.334Z,27.23
2023-02-06T07:54:11.337Z,27.25
2023-02-06T07:55:11.357Z,27.30
2023-02-06T07:56:11.394Z,27.30
2023-02-06T07:57:11.421Z,27.32
2023-02-06T07:58:11.461Z,27.33
2023-02-06T07:59:11.474Z,27.34
2023-02-06T08:00:11.652Z,27.37
2023-02-06T08:01:11.556Z,27.38
2023-02-06T08:02:11.539Z,27.40
2023-02-06T08:03:11.573Z,27.38
2023-02-06T08:04:11.568Z,27.41
2023-02-06T08:05:11.553Z,27.38
2023-02-06T08:06:11.563Z,27.40
2023-02-06T08:08:11.562Z,27.40
2023-02-06T08:09:11.567Z,27.41
2023-02-06T08:10:11.647Z,27.41
2023-02-06T08:11:11.690Z,27.41
2023-02-06T08:12:12.117Z,27.43
2023-02-06T08:13:11.759Z,27.44
2023-02-06T08:14:11.866Z,27.47
2023-02-06T08:15:11.886Z,27.46
2023-02-06T08:16:12.021Z,27.46
2023-02-06T08:17:12.041Z,27.47
2023-02-06T08:18:12.065Z,27.47
2023-02-06T08:19:12.113Z,27.47
2023-02-06T08:20:12.194Z,27.48
2023-02-06T08:21:12.276Z,27.50
2023-02-06T08:22:12.336Z,27.53
2023-02-06T08:23:12.448Z,27.47
2023-02-06T08:24:12.434Z,27.48
2023-02-06T08:25:12.669Z,27.50
2023-02-06T08:26:12.561Z,27.51
2023-02-06T08:27:12.599Z,27.53
2023-02-06T08:28:12.771Z,27.51
2023-02-06T08:29:12.798Z,27.51
2023-02-06T08:30:13.148Z,27.51
2023-02-06T08:31:13.056Z,27.53
2023-02-06T08:32:12.957Z,27.53
2023-02-06T08:33:12.998Z,27.54
2023-02-06T08:34:13.069Z,27.54
2023-02-06T08:35:13.150Z,27.58
2023-02-06T08:36:13.064Z,27.57
2023-02-06T08:37:13.228Z,27.57
2023-02-06T08:38:13.073Z,27.56
2023-02-06T08:39:13.083Z,27.51
2023-02-06T08:40:13.106Z,27.47
2023-02-06T08:41:13.113Z,27.46
2023-02-06T08:42:13.153Z,27.41
2023-02-06T08:43:13.206Z,27.38
2023-02-06T08:44:13.251Z,27.37
2023-02-06T08:45:13.271Z,27.33
2023-02-06T08:46:13.317Z,27.33
2023-02-06T08:47:13.261Z,27.27
2023-02-06T08:48:13.291Z,27.29
2023-02-06T08:49:13.270Z,27.27
2023-02-06T08:50:13.298Z,27.27
2023-02-06T08:51:13.281Z,27.26
2023-02-06T08:52:13.307Z,27.23
2023-02-06T08:53:13.324Z,27.22
2023-02-06T08:54:13.302Z,27.23
2023-02-06T08:55:13.309Z,27.19
2023-02-06T08:56:13.323Z,27.20
2023-02-06T08:57:13.336Z,27.16
2023-02-06T08:58:13.336Z,27.16
2023-02-06T08:59:13.298Z,27.14
2023-02-06T09:00:13.356Z,27.14
2023-02-06T09:01:13.385Z,27.11
2023-02-06T09:02:13.405Z,27.07
2023-02-06T09:03:13.438Z,27.03
2023-02-06T09:04:13.439Z,27.00
2023-02-06T09:05:13.726Z,27.00
2023-02-06T09:06:13.600Z,26.97
2023-02-06T09:07:15.192Z,27.00
2023-02-06T09:08:13.688Z,27.05
2023-02-06T09:09:13.631Z,27.07
2023-02-06T09:10:26.765Z,27.09
2023-02-06T09:11:14.602Z,27.10
2023-02-06T09:12:13.638Z,27.13
2023-02-06T09:13:13.605Z,27.14
2023-02-06T09:14:13.604Z,27.19
2023-02-06T09:15:13.613Z,27.17
2023-02-06T09:16:13.605Z,27.19
2023-02-06T09:17:13.567Z,27.20
2023-02-06T09:18:13.573Z,27.22
2023-02-06T09:19:13.585Z,27.19
2023-02-06T09:20:13.694Z,27.23
2023-02-06T09:21:13.560Z,27.22
2023-02-06T09:22:13.532Z,27.22
2023-02-06T09:23:13.561Z,27.19
2023-02-06T09:24:13.573Z,27.20
2023-02-06T09:25:13.619Z,27.20
2023-02-06T09:26:13.687Z,27.19
2023-02-06T09:27:13.737Z,27.22
2023-02-06T09:28:13.817Z,27.25
2023-02-06T09:29:13.847Z,27.23
2023-02-06T09:30:13.904Z,27.23
2023-02-06T09:31:14.030Z,27.26
2023-02-06T09:32:14.032Z,27.29
2023-02-06T09:33:14.107Z,27.33
2023-02-06T09:34:14.154Z,27.33
2023-02-06T09:35:14.657Z,27.34
2023-02-06T09:36:14.232Z,27.32
2023-02-06T09:37:14.385Z,27.36
2023-02-06T09:38:14.434Z,27.38
2023-02-06T09:39:14.452Z,27.38
2023-02-06T09:40:14.549Z,27.40
2023-02-06T09:41:14.542Z,27.40
2023-02-06T09:42:14.612Z,27.43
2023-02-06T09:43:14.697Z,27.44
2023-02-06T09:44:14.766Z,27.44
2023-02-06T09:45:14.793Z,27.46
2023-02-06T09:59:16.592Z,27.33
2023-02-06T10:00:15.164Z,27.32
2023-02-06T10:01:15.230Z,27.34
2023-02-06T10:02:15.169Z,27.33
2023-02-06T10:03:15.126Z,27.32
2023-02-06T10:04:15.213Z,27.36
2023-02-06T10:05:15.224Z,27.37
2023-02-06T10:06:15.690Z,27.38
2023-02-06T10:07:15.284Z,27.37
2023-02-06T10:08:15.293Z,27.41
2023-02-06T10:09:15.311Z,27.40
2023-02-06T10:10:15.254Z,27.43
2023-02-06T10:11:15.265Z,27.43
2023-02-06T10:12:15.269Z,27.43
2023-02-06T10:13:15.260Z,27.41
2023-02-06T10:14:15.264Z,27.34
2023-02-06T10:15:15.297Z,27.34
2023-02-06T10:16:15.333Z,27.23
2023-02-06T10:32:15.523Z,27.23
2023-02-06T10:33:25.281Z,27.27
2023-02-06T10:34:16.559Z,27.29
2023-02-06T10:35:15.521Z,27.36
2023-02-06T10:36:15.517Z,27.36
2023-02-06T10:37:15.560Z,27.37
2023-02-06T10:38:15.501Z,27.41
2023-02-06T10:39:15.527Z,27.43
2023-02-06T10:40:15.491Z,27.41
2023-02-06T10:41:16.195Z,27.38
2023-02-06T10:42:15.488Z,27.36
2023-02-06T10:44:15.511Z,27.33
2023-02-06T10:45:20.294Z,27.29
2023-02-06T10:46:16.465Z,27.26
2023-02-06T10:47:15.453Z,27.32
2023-02-06T10:48:15.513Z,27.30
2023-02-06T10:49:15.478Z,27.34
2023-02-06T10:50:15.407Z,27.36
2023-02-06T10:51:15.714Z,27.37
2023-02-06T10:52:15.462Z,27.40
2023-02-06T10:53:15.390Z,27.43
2023-02-06T10:54:15.504Z,27.44
2023-02-06T10:55:15.379Z,27.44
2023-02-06T10:56:15.737Z,27.47
2023-02-06T10:57:15.408Z,27.47
2023-02-06T10:58:15.357Z,27.50
2023-02-06T10:59:15.394Z,27.50
2023-02-06T11:00:15.353Z,27.51
2023-02-06T11:01:25.639Z,27.53
2023-02-06T11:02:16.750Z,27.54
2023-02-06T11:03:15.322Z,27.53
2023-02-06T11:04:15.341Z,27.54
2023-02-06T11:05:15.392Z,27.54
2023-02-06T11:06:15.306Z,27.54
2023-02-06T11:07:15.324Z,27.56
2023-02-06T11:08:15.287Z,27.56
2023-02-06T11:09:15.317Z,27.54
2023-02-06T11:10:15.321Z,27.54
2023-02-06T11:11:15.399Z,27.54
2023-02-06T11:12:15.370Z,27.56
2023-02-06T11:13:15.298Z,27.57
2023-02-06T11:14:15.257Z,27.60
2023-02-06T11:15:15.271Z,27.57
2023-02-06T11:16:15.278Z,27.57
2023-02-06T11:17:15.715Z,27.57
2023-02-06T11:18:15.351Z,27.60
2023-02-06T11:19:15.503Z,27.58
2023-02-06T11:20:15.787Z,27.58
2023-02-06T11:21:15.569Z,27.61
2023-02-06T11:22:15.661Z,27.67
2023-02-06T11:24:15.613Z,27.64
2023-02-06T11:25:15.620Z,27.64
2023-02-06T11:26:15.601Z,27.68
2023-02-06T11:27:15.707Z,27.70
2023-02-06T11:28:15.647Z,27.70
2023-02-06T11:29:15.573Z,27.71
2023-02-06T11:30:15.554Z,27.72
2023-02-06T11:31:15.561Z,27.67
2023-02-06T11:32:15.749Z,27.71
2023-02-06T11:33:15.674Z,27.67
2023-02-06T11:34:15.783Z,27.68
2023-02-06T11:35:15.752Z,27.65
2023-02-06T11:36:15.780Z,27.62
2023-02-06T11:37:16.254Z,27.58
2023-02-06T11:38:15.813Z,27.53
2023-02-06T11:39:15.816Z,27.47
2023-02-06T11:40:15.777Z,27.44
2023-02-06T11:41:15.818Z,27.43
2023-02-06T11:42:16.214Z,27.40
2023-02-06T11:43:15.800Z,27.37
2023-02-06T11:44:15.812Z,27.34
2023-02-06T11:45:15.829Z,27.33
2023-02-06T11:46:15.911Z,27.33
2023-02-06T11:47:15.834Z,27.33
2023-02-06T11:48:15.858Z,27.30
2023-02-06T11:49:15.948Z,27.32
2023-02-06T11:50:15.953Z,27.29
2023-02-06T11:51:15.986Z,27.27
2023-02-06T11:52:16.019Z,27.23
2023-02-06T11:53:16.106Z,27.26
2023-02-06T11:54:16.077Z,27.26
2023-02-06T11:55:16.170Z,27.27
2023-02-06T11:56:16.210Z,27.27
2023-02-06T11:57:16.305Z,27.29
2023-02-06T11:58:16.263Z,27.29
2023-02-06T11:59:16.256Z,27.22
2023-02-06T12:00:16.303Z,27.06
2023-02-06T12:01:16.417Z,27.00
2023-02-06T12:02:16.492Z,26.90
2023-02-06T12:03:16.473Z,26.85
2023-02-06T12:04:16.455Z,26.76
2023-02-06T12:05:16.539Z,26.71
2023-02-06T12:06:16.548Z,26.68
2023-02-06T12:07:16.596Z,26.63
2023-02-06T12:08:16.649Z,26.63
2023-02-06T12:09:16.726Z,26.60
2023-02-06T12:10:16.835Z,26.65
2023-02-06T12:11:16.818Z,26.66
2023-02-06T12:12:17.230Z,26.69
2023-02-06T12:13:16.821Z,26.72
2023-02-06T12:14:18.096Z,26.76
2023-02-06T12:16:16.961Z,26.81
2023-02-06T12:17:17.295Z,26.79
2023-02-06T12:18:17.046Z,26.78
2023-02-06T12:19:17.048Z,26.60
2023-02-06T12:20:17.109Z,26.49
2023-02-06T12:21:17.171Z,26.46
2023-02-06T12:22:17.390Z,26.36
2023-02-06T12:23:17.173Z,26.39
2023-02-06T12:24:17.206Z,26.44
2023-02-06T12:25:17.221Z,26.46
2023-02-06T12:26:17.245Z,26.51
2023-02-06T12:28:17.349Z,26.60
2023-02-06T12:29:17.414Z,26.62
2023-02-06T12:30:17.372Z,26.68
2023-02-06T12:31:17.476Z,26.76
2023-02-06T12:33:17.411Z,26.87
2023-02-06T12:34:17.510Z,26.92
2023-02-06T12:35:17.520Z,26.96
2023-02-06T12:36:17.583Z,27.00
2023-02-06T12:37:17.769Z,27.05
2023-02-06T12:38:17.569Z,27.07
2023-02-06T12:39:17.741Z,27.14
2023-02-06T12:40:17.576Z,27.16
2023-02-06T12:41:17.586Z,27.17
2023-02-06T12:42:17.763Z,27.19
2023-02-06T12:43:17.595Z,27.20
2023-02-06T12:44:17.612Z,27.22
2023-02-06T12:45:17.582Z,27.23
2023-02-06T12:46:17.612Z,27.26
2023-02-06T12:47:17.589Z,27.27
2023-02-06T12:48:17.591Z,27.29
2023-02-06T12:49:17.604Z,27.32
2023-02-06T12:50:17.610Z,27.32
2023-02-06T12:51:17.619Z,27.34
2023-02-06T12:52:17.626Z,27.32
2023-02-06T12:53:17.575Z,27.34
2023-02-06T12:54:17.641Z,27.36
2023-02-06T12:55:17.671Z,27.38
2023-02-06T12:56:17.693Z,27.38
2023-02-06T12:57:17.707Z,27.40
2023-02-06T12:58:17.768Z,27.40
2023-02-06T12:59:17.789Z,27.43
2023-02-06T13:00:17.827Z,27.38
2023-02-06T13:02:18.071Z,27.41
2023-02-06T13:03:17.888Z,27.44
2023-02-06T13:04:17.900Z,27.43
2023-02-06T13:05:17.924Z,27.46
2023-02-06T13:06:17.932Z,27.46
2023-02-06T13:07:17.964Z,27.44
2023-02-06T13:08:17.933Z,27.47
2023-02-06T13:09:17.984Z,27.47
2023-02-06T13:10:17.984Z,27.48
2023-02-06T13:11:17.984Z,27.53
2023-02-06T13:34:18.609Z,27.57
2023-02-06T14:22:19.686Z,27.58
2023-02-06T14:23:19.685Z,27.60
2023-02-06T14:24:19.708Z,27.58
2023-02-06T14:27:19.718Z,27.58
2023-02-06T14:28:19.795Z,27.57
2023-02-06T14:29:19.773Z,27.56
2023-02-06T14:30:19.744Z,27.57
2023-02-06T14:31:19.919Z,27.57
2023-02-06T14:32:19.762Z,27.54
2023-02-06T14:33:19.826Z,27.54
2023-02-06T14:34:19.733Z,27.54
2023-02-06T14:35:19.753Z,27.56
2023-02-06T14:36:19.729Z,27.54
2023-02-06T14:37:19.740Z,27.54
2023-02-06T14:38:19.771Z,27.54
2023-02-06T14:39:19.723Z,27.53
2023-02-06T14:40:19.727Z,27.57
2023-02-06T14:41:19.709Z,27.54
2023-02-06T14:42:19.720Z,27.53
2023-02-06T14:43:20.022Z,27.54
2023-02-06T14:44:19.708Z,27.54
2023-02-06T14:45:19.705Z,27.51
2023-02-06T14:46:19.756Z,27.53
2023-02-06T14:47:19.728Z,27.53
2023-02-06T14:48:19.739Z,27.53
2023-02-06T14:49:19.669Z,27.54
2023-02-06T14:50:19.686Z,27.53
2023-02-06T14:51:19.707Z,27.51
2023-02-06T14:52:19.716Z,27.50
2023-02-06T14:53:19.695Z,27.51
2023-02-06T14:54:19.672Z,27.50
2023-02-06T14:55:19.712Z,27.51
2023-02-06T14:56:22.356Z,27.51
2023-02-06T14:57:19.736Z,27.51
2023-02-06T14:58:19.734Z,27.51
2023-02-06T14:59:19.714Z,27.50
2023-02-06T15:00:19.720Z,27.50
2023-02-06T15:01:19.720Z,27.50
2023-02-06T15:02:19.670Z,27.47
2023-02-06T15:03:19.724Z,27.51